Saint-Eustache, Canada
Current Conditions -  °F | °C
As of 4:00 PM on Sunday 21 Dec 2014 (Local Time) from CYMX Reporting Station
Light Snow Light Snow  
Wind Chill: -12°   Ceiling: 2100
Heat Index: -8°   Visibility: 10mi
Dew Point: -10°   Wind: 5mph
Humidity: 86%   Direction: 90°E
Pressure: 30.37"   Gusts: NA
Location:  45.57°N, 73.9°W
Report Text: CYMX 212100Z 09004KT 10SM -SN FEW015 OVC021 M08/M10 A3037 RMK SC1SC7 SLP290
Loading
Personal Weather Stations






























Interactive Weather Map New forecast layout! Learn more

10-Day Weather Forecast

Advertisements
Track Severe Weather on mobile